KDLS/DLS METAR and TAF weather

Enter ICAO airport designator
Station Type Date Time Source
KDLS METAR 2018/10/21 04:53 UTC NOAA

KDLS 210453Z AUTO 10004KT 10SM CLR 10/04 A3007 RMK AO2 SLP182 T01000044


Station Type Date Time Source
KDLS Decoded METAR 2018/10/21 04:53 UTC NOAA

THE DALLES MUNICIPAL AIRPORT , OR, United States (KDLS) 45-37N 121-10W 71M
Oct 21, 2018 - 12:53 AM EDT / 2018.10.21 0453 UTC
Wind: from the E (100 degrees) at 5 MPH (4 KT):0
Visibility: 10 mile(s):0
Sky conditions: clear
Temperature: 50.0 F (10.0 C)
Dew Point: 39.9 F (4.4 C)
Relative Humidity: 68%
Pressure (altimeter): 30.07 in. Hg (1018 hPa)
ob: KDLS 210453Z AUTO 10004KT 10SM CLR 10/04 A3007 RMK AO2 SLP182 T01000044
cycle: 5

Station Type Date Time Source
KDLS TAF 2018/10/21 06:22 UTC NOAA

TAF KDLS 210520Z 2106/2206 09004KT P6SM SKC
FM211700 VRB04KT P6SM BKN250


Example: see airport list